Time;durP1;ratioP1;P1;durP2;ratioP2;P2;SDS_P1;SDS_P2;PMS_P1;PMS_P2;Temp;Humidity;BMP_temperature;BMP_pressure;BME280_temperature;BME280_humidity;BME280_pressure;Samples;Min_cycle;Max_cycle;Signal;HPM_P1;HPM_P2
2022/10/02 00:02:43;;;;;;;15.98;2.30;;;14.90;99.90;;;;;;5014034;28;20038;-73
2022/10/02 00:05:09;;;;;;;14.25;1.70;;;14.90;99.90;;;;;;5028496;28;20044;-73
2022/10/02 00:07:48;;;;;;;11.70;1.98;;;14.90;99.90;;;;;;5013574;28;20108;-73
2022/10/02 00:10:33;;;;;;;10.70;1.58;;;14.90;99.90;;;;;;5016426;28;20049;-73
2022/10/02 00:13:06;;;;;;;11.00;1.40;;;14.80;99.90;;;;;;5017904;28;20068;-74
2022/10/02 00:15:34;;;;;;;6.60;0.85;;;14.90;99.90;;;;;;5026624;28;20028;-74
2022/10/02 00:18:21;;;;;;;9.70;0.80;;;14.90;99.90;;;;;;5068878;28;20091;-73
2022/10/02 00:21:11;;;;;;;5.50;0.93;;;14.80;99.90;;;;;;5031029;28;20425;-73
2022/10/02 00:23:40;;;;;;;5.70;0.93;;;14.80;99.80;;;;;;5017704;28;20117;-74
2022/10/02 00:26:08;;;;;;;6.95;0.93;;;14.80;99.60;;;;;;5017071;28;20413;-74
2022/10/02 00:29:27;;;;;;;6.80;0.82;;;14.80;99.60;;;;;;5017419;28;20026;-74
2022/10/02 00:32:20;;;;;;;6.10;0.73;;;14.80;99.60;;;;;;5035026;28;20120;-74
2022/10/02 00:35:15;;;;;;;4.82;0.32;;;14.80;99.50;;;;;;5034886;28;20124;-74
2022/10/02 00:37:58;;;;;;;3.95;0.52;;;14.80;99.40;;;;;;5017733;28;20125;-74
2022/10/02 00:40:39;;;;;;;6.60;0.70;;;14.80;99.30;;;;;;5017265;28;20037;-74
2022/10/02 00:43:29;;;;;;;7.50;1.10;;;14.80;99.30;;;;;;5017285;28;20117;-74
2022/10/02 00:46:24;;;;;;;7.55;0.90;;;14.80;99.10;;;;;;5017241;28;20022;-74
2022/10/02 00:49:01;;;;;;;5.13;0.70;;;14.70;99.10;;;;;;5016712;28;20033;-72
2022/10/02 00:51:39;;;;;;;4.97;0.57;;;14.70;99.10;;;;;;5017140;28;20033;-73
2022/10/02 00:54:24;;;;;;;5.43;0.80;;;14.80;99.00;;;;;;5016784;28;20528;-73
2022/10/02 00:57:02;;;;;;;6.18;0.70;;;14.70;98.90;;;;;;5017097;28;20417;-73
2022/10/02 00:59:39;;;;;;;7.65;1.08;;;14.70;98.90;;;;;;5016396;28;20041;-73
2022/10/02 01:02:13;;;;;;;7.10;1.05;;;14.70;98.80;;;;;;5016874;28;20018;-73
2022/10/02 01:04:39;;;;;;;5.32;0.60;;;14.70;98.80;;;;;;5016661;28;20022;-73
2022/10/02 01:07:09;;;;;;;7.65;0.80;;;14.70;98.90;;;;;;5016985;28;20044;-73
2022/10/02 01:09:35;;;;;;;5.22;0.75;;;14.70;98.80;;;;;;5016827;28;20034;-73
2022/10/02 01:12:02;;;;;;;7.45;0.90;;;14.70;98.80;;;;;;5022445;28;20038;-72
2022/10/02 01:14:36;;;;;;;5.43;0.68;;;14.70;98.80;;;;;;5041284;28;20025;-73
2022/10/02 01:17:06;;;;;;;5.22;0.82;;;14.70;98.80;;;;;;5031927;28;20474;-73
2022/10/02 01:19:39;;;;;;;6.32;0.85;;;14.70;98.80;;;;;;5016569;28;20589;-73
2022/10/02 01:22:16;;;;;;;10.32;0.80;;;14.70;98.80;;;;;;5016232;28;20034;-73
2022/10/02 01:24:52;;;;;;;6.82;0.75;;;14.80;98.80;;;;;;5016227;28;20478;-73
2022/10/02 01:27:18;;;;;;;6.60;0.68;;;14.80;99.10;;;;;;5015982;28;20049;-73
2022/10/02 01:29:51;;;;;;;5.15;0.60;;;14.80;98.80;;;;;;5016427;28;20381;-73
2022/10/02 01:32:17;;;;;;;;;;;14.90;98.80;;;;;;5016498;28;20026;-73
2022/10/02 01:34:44;;;;;;;8.18;0.77;;;14.90;98.80;;;;;;5016246;28;19913;-73
2022/10/02 01:37:09;;;;;;;5.95;0.75;;;14.90;98.80;;;;;;5016376;28;20030;-73
2022/10/02 01:39:36;;;;;;;9.52;0.70;;;15.00;98.70;;;;;;5016090;28;20101;-73
2022/10/02 01:42:02;;;;;;;8.70;1.38;;;15.00;98.60;;;;;;5016257;28;20026;-73
2022/10/02 01:44:28;;;;;;;10.20;1.20;;;15.00;98.70;;;;;;5016172;28;20046;-73
2022/10/02 01:47:08;;;;;;;6.65;1.20;;;15.00;98.80;;;;;;5016155;28;20030;-73
2022/10/02 01:50:01;;;;;;;8.95;1.50;;;14.90;98.80;;;;;;5015823;28;20501;-73
2022/10/02 01:52:32;;;;;;;15.23;2.50;;;14.90;98.90;;;;;;5015908;28;20030;-73
2022/10/02 01:55:13;;;;;;;14.00;2.72;;;14.90;99.10;;;;;;5015972;28;20029;-73
2022/10/02 01:57:44;;;;;;;14.73;3.22;;;14.90;99.40;;;;;;5015665;28;20025;-72
2022/10/02 02:00:19;;;;;;;16.30;3.03;;;14.80;99.80;;;;;;5015839;28;20022;-72
2022/10/02 02:03:04;;;;;;;18.88;4.20;;;14.80;99.90;;;;;;5015711;28;20029;-73
2022/10/02 02:06:00;;;;;;;21.77;4.40;;;14.80;99.90;;;;;;5015543;28;20037;-73
2022/10/02 02:08:29;;;;;;;26.58;5.53;;;14.80;99.90;;;;;;5025491;28;20070;-72
2022/10/02 02:11:14;;;;;;;19.25;5.10;;;14.80;99.90;;;;;;5038607;28;20066;-73
2022/10/02 02:13:43;;;;;;;20.20;5.05;;;14.70;99.90;;;;;;5025280;28;20097;-74
2022/10/02 02:16:43;;;;;;;24.05;5.80;;;14.60;99.90;;;;;;5015177;28;20025;-74
2022/10/02 02:19:26;;;;;;;24.80;6.88;;;14.60;99.90;;;;;;5015472;28;20034;-74
2022/10/02 02:22:00;;;;;;;20.00;5.28;;;14.70;99.90;;;;;;5015149;28;20026;-74
2022/10/02 02:24:42;;;;;;;21.13;6.07;;;14.70;99.90;;;;;;5015269;28;20037;-74
2022/10/02 02:27:12;;;;;;;21.73;5.50;;;14.70;99.90;;;;;;5015075;28;20563;-74
2022/10/02 02:29:42;;;;;;;23.13;6.05;;;14.80;99.90;;;;;;5015367;28;20092;-74
2022/10/02 02:32:12;;;;;;;28.08;6.35;;;14.80;99.90;;;;;;5014261;28;20026;-74
2022/10/02 02:34:51;;;;;;;25.55;5.88;;;14.80;99.90;;;;;;5014893;28;20498;-74
2022/10/02 02:37:21;;;;;;;21.58;6.03;;;14.80;99.90;;;;;;5015201;28;20030;-74
2022/10/02 02:40:00;;;;;;;20.10;5.85;;;14.80;99.90;;;;;;5015135;28;20022;-74
2022/10/02 02:42:31;;;;;;;21.10;6.15;;;14.80;99.90;;;;;;5015049;28;20377;-74
2022/10/02 02:45:12;;;;;;;23.73;5.53;;;14.80;99.90;;;;;;5015007;28;20093;-74
2022/10/02 02:47:52;;;;;;;23.10;6.28;;;14.80;99.90;;;;;;5015284;28;20025;-74
2022/10/02 02:50:33;;;;;;;27.15;6.35;;;14.90;99.90;;;;;;5014817;28;20073;-74
2022/10/02 02:53:23;;;;;;;22.85;6.18;;;14.90;99.90;;;;;;5014974;28;20029;-74
2022/10/02 02:56:07;;;;;;;21.70;5.25;;;14.90;99.90;;;;;;5014711;28;20053;-74
2022/10/02 02:58:39;;;;;;;25.23;6.25;;;14.90;99.90;;;;;;5014996;28;20054;-74
2022/10/02 03:01:05;;;;;;;22.83;6.00;;;14.90;99.90;;;;;;5015952;28;20105;-74
2022/10/02 03:03:30;;;;;;;24.35;6.18;;;14.80;99.90;;;;;;5028032;28;20084;-74
2022/10/02 03:06:03;;;;;;;23.60;5.53;;;14.80;99.90;;;;;;5036425;28;20032;-73
2022/10/02 03:08:33;;;;;;;21.05;5.72;;;14.80;99.90;;;;;;5031605;28;20025;-74
2022/10/02 03:11:15;;;;;;;18.80;5.30;;;14.80;99.90;;;;;;5015145;28;20040;-74
2022/10/02 03:13:49;;;;;;;21.90;4.85;;;14.70;99.90;;;;;;5014263;28;20041;-74
2022/10/02 03:16:44;;;;;;;24.10;5.57;;;14.70;99.90;;;;;;5014053;28;20049;-74
2022/10/02 03:19:13;;;;;;;20.95;5.20;;;14.70;99.90;;;;;;5014409;28;20064;-74
2022/10/02 03:21:44;;;;;;;18.55;4.53;;;14.80;99.90;;;;;;5014110;28;20528;-74
2022/10/02 03:24:37;;;;;;;24.40;5.40;;;14.80;99.90;;;;;;5014189;28;20426;-74
2022/10/02 03:27:12;;;;;;;26.52;5.30;;;14.80;99.90;;;;;;5013813;28;20136;-74
2022/10/02 03:30:01;;;;;;;22.05;5.18;;;14.80;99.90;;;;;;5013629;28;20034;-72
2022/10/02 03:32:27;;;;;;;22.85;5.20;;;14.80;99.90;;;;;;5013964;28;20503;-73
2022/10/02 03:34:53;;;;;;;18.30;5.22;;;14.80;99.90;;;;;;5013928;28;20022;-74
2022/10/02 03:37:20;;;;;;;16.58;4.28;;;14.80;99.90;;;;;;5013900;28;20149;-74
2022/10/02 03:39:47;;;;;;;22.63;4.70;;;14.70;99.90;;;;;;5014056;28;20026;-74
2022/10/02 03:42:14;;;;;;;27.55;5.43;;;14.70;99.90;;;;;;5013565;28;20038;-74
2022/10/02 03:44:40;;;;;;;22.92;4.10;;;14.70;99.90;;;;;;5013287;28;20033;-73
2022/10/02 03:47:08;;;;;;;18.73;4.43;;;14.70;99.90;;;;;;5013621;28;20030;-73
2022/10/02 03:49:34;;;;;;;20.55;4.03;;;14.70;99.90;;;;;;5013723;28;20061;-73
2022/10/02 03:52:00;;;;;;;23.38;4.68;;;14.70;99.90;;;;;;5013578;28;20064;-73
2022/10/02 03:54:29;;;;;;;28.83;5.40;;;14.70;99.90;;;;;;5013422;28;20037;-73
2022/10/02 03:56:58;;;;;;;18.90;3.80;;;14.70;99.90;;;;;;5013706;28;20022;-73
2022/10/02 03:59:51;;;;;;;20.08;3.85;;;14.70;99.90;;;;;;5014152;28;20021;-73
2022/10/02 04:02:28;;;;;;;;;;;14.60;99.90;;;;;;5035396;28;20030;-73
2022/10/02 04:05:04;;;;;;;21.00;3.42;;;14.60;99.90;;;;;;5030952;28;19906;-73
2022/10/02 04:07:38;;;;;;;23.67;3.47;;;14.70;99.90;;;;;;5013588;28;20477;-73
2022/10/02 04:10:35;;;;;;;18.15;3.20;;;14.70;99.90;;;;;;5013499;28;20040;-73
2022/10/02 04:13:08;;;;;;;25.50;4.18;;;14.60;99.90;;;;;;5014567;28;20064;-73
2022/10/02 04:15:50;;;;;;;21.67;3.88;;;14.50;99.90;;;;;;5013537;28;20026;-73
2022/10/02 04:18:32;;;;;;;29.40;4.00;;;14.50;99.90;;;;;;5013699;28;20033;-73
2022/10/02 04:21:33;;;;;;;19.30;3.38;;;14.50;99.90;;;;;;5013581;28;20080;-73
2022/10/02 04:24:25;;;;;;;18.30;3.20;;;14.40;99.90;;;;;;5022945;28;20105;-73
2022/10/02 04:27:06;;;;;;;23.83;3.75;;;14.40;99.90;;;;;;5013178;28;20046;-73
2022/10/02 04:29:56;;;;;;;23.85;3.58;;;14.40;99.90;;;;;;5013496;28;20044;-74
2022/10/02 04:32:31;;;;;;;23.60;4.30;;;14.40;99.90;;;;;;5013500;28;20037;-74
2022/10/02 04:34:57;;;;;;;17.98;3.47;;;14.40;99.90;;;;;;5013172;28;20030;-73
2022/10/02 04:37:30;;;;;;;19.75;4.40;;;14.40;99.90;;;;;;5013326;28;20037;-72
2022/10/02 04:40:08;;;;;;;;;;;14.40;99.90;;;;;;5013666;28;20511;-72
2022/10/02 04:42:47;;;;;;;26.50;4.15;;;14.40;99.90;;;;;;5013331;28;19912;-73
2022/10/02 04:45:27;;;;;;;21.75;4.55;;;14.40;99.90;;;;;;5013278;28;20026;-73
2022/10/02 04:48:04;;;;;;;19.05;3.65;;;14.40;99.90;;;;;;5013447;28;20018;-73
2022/10/02 04:50:42;;;;;;;25.60;4.03;;;14.40;99.90;;;;;;5013043;28;20069;-73
2022/10/02 04:53:27;;;;;;;23.85;3.88;;;14.40;99.90;;;;;;5013483;28;20032;-73
2022/10/02 04:56:16;;;;;;;28.88;3.92;;;14.40;99.90;;;;;;5015389;28;20050;-73
2022/10/02 04:58:59;;;;;;;31.58;5.03;;;14.40;99.90;;;;;;5041188;28;20041;-73
2022/10/02 05:01:51;;;;;;;26.92;4.07;;;14.40;99.90;;;;;;5032388;28;20052;-73
2022/10/02 05:04:20;;;;;;;26.67;4.68;;;14.40;99.90;;;;;;5016924;28;20026;-73
2022/10/02 05:07:04;;;;;;;28.85;4.70;;;14.50;99.90;;;;;;5016363;28;20470;-73
2022/10/02 05:09:45;;;;;;;27.88;4.55;;;14.40;99.90;;;;;;5016516;28;20444;-73
2022/10/02 05:12:22;;;;;;;32.10;4.97;;;14.50;99.90;;;;;;5016760;28;20022;-73
2022/10/02 05:15:03;;;;;;;27.05;4.53;;;14.50;99.90;;;;;;5016905;28;20073;-73
2022/10/02 05:17:50;;;;;;;25.90;4.10;;;14.40;99.90;;;;;;5016297;28;20388;-74
2022/10/02 05:20:30;;;;;;;22.65;4.38;;;14.40;99.90;;;;;;5016257;28;20386;-73
2022/10/02 05:23:17;;;;;;;23.20;4.05;;;14.40;99.90;;;;;;5016326;28;20029;-73
2022/10/02 05:25:57;;;;;;;25.10;4.85;;;14.40;99.90;;;;;;5015963;28;20018;-73
2022/10/02 05:28:29;;;;;;;26.63;5.35;;;14.50;99.90;;;;;;5016233;28;20044;-72
2022/10/02 05:31:16;;;;;;;32.55;5.20;;;14.50;99.90;;;;;;5016295;28;20061;-73
2022/10/02 05:34:09;;;;;;;21.17;4.60;;;14.50;99.90;;;;;;5016045;28;20022;-73
2022/10/02 05:36:48;;;;;;;24.08;4.97;;;14.50;99.90;;;;;;5016035;28;20026;-73
2022/10/02 05:39:25;;;;;;;24.13;4.40;;;14.50;99.90;;;;;;5016157;28;20045;-73
2022/10/02 05:42:10;;;;;;;26.05;5.20;;;14.50;99.90;;;;;;5016096;28;20380;-73
2022/10/02 05:44:41;;;;;;;25.20;5.60;;;14.40;99.90;;;;;;5015787;28;20018;-73
2022/10/02 05:47:18;;;;;;;21.67;4.72;;;14.40;99.90;;;;;;5016207;28;20067;-73
2022/10/02 05:49:51;;;;;;;24.60;4.80;;;14.40;99.90;;;;;;5016065;28;20053;-74
2022/10/02 05:52:41;;;;;;;27.33;4.40;;;14.40;99.90;;;;;;5022755;28;20036;-72
2022/10/02 05:55:19;;;;;;;30.08;4.55;;;14.30;99.90;;;;;;5034225;28;20049;-72
2022/10/02 05:57:53;;;;;;;26.65;4.35;;;14.30;99.90;;;;;;5026365;28;20474;-73
2022/10/02 06:00:37;;;;;;;25.17;4.38;;;14.30;99.90;;;;;;5015975;28;20100;-73
2022/10/02 06:03:14;;;;;;;28.90;4.25;;;14.30;99.90;;;;;;5015730;28;20092;-73
2022/10/02 06:05:56;;;;;;;23.05;4.05;;;14.30;99.90;;;;;;5015601;28;20030;-73
2022/10/02 06:08:39;;;;;;;24.35;3.92;;;14.30;99.90;;;;;;5015260;28;20026;-73
2022/10/02 06:11:25;;;;;;;19.50;4.13;;;14.30;99.90;;;;;;5015638;28;20057;-73
2022/10/02 06:13:57;;;;;;;17.45;3.60;;;14.40;99.90;;;;;;5015579;28;20022;-73
2022/10/02 06:16:31;;;;;;;23.65;3.90;;;14.30;99.90;;;;;;5015597;28;20037;-74
2022/10/02 06:19:04;;;;;;;18.85;4.15;;;14.40;99.90;;;;;;5015297;28;20044;-74
2022/10/02 06:21:44;;;;;;;23.52;3.85;;;14.40;99.90;;;;;;5015488;28;20030;-74
2022/10/02 06:24:17;;;;;;;21.13;3.95;;;14.40;99.90;;;;;;5015542;28;20377;-73
2022/10/02 06:26:54;;;;;;;20.98;3.75;;;14.40;99.90;;;;;;5014859;28;20049;-73
2022/10/02 06:29:52;;;;;;;25.33;3.90;;;14.40;99.90;;;;;;5014965;28;20413;-73
2022/10/02 06:32:29;;;;;;;19.80;3.75;;;14.40;99.90;;;;;;5018514;28;20500;-73
2022/10/02 06:34:55;;;;;;;21.05;4.13;;;14.40;99.90;;;;;;5015217;28;20054;-73
2022/10/02 06:37:43;;;;;;;22.50;3.95;;;14.50;99.90;;;;;;5015049;28;20084;-73
2022/10/02 06:40:46;;;;;;;27.80;4.43;;;14.50;99.90;;;;;;5014899;28;20105;-73
2022/10/02 06:43:16;;;;;;;27.65;4.15;;;14.50;99.90;;;;;;5020864;28;20038;-73
2022/10/02 06:46:30;;;;;;;19.25;3.83;;;14.50;99.90;;;;;;5014850;28;20105;-73
2022/10/02 06:49:03;;;;;;;19.00;3.20;;;14.60;99.90;;;;;;5029133;28;20038;-73
2022/10/02 06:52:11;;;;;;;25.10;4.25;;;14.60;99.90;;;;;;5015256;28;20038;-73
2022/10/02 06:54:57;;;;;;;18.10;3.85;;;14.60;99.90;;;;;;5016572;28;20026;-73
2022/10/02 06:57:51;;;;;;;17.00;2.85;;;14.60;99.90;;;;;;5014671;28;20044;-73
2022/10/02 07:00:20;;;;;;;24.88;3.60;;;14.50;99.90;;;;;;5016223;28;20030;-73
2022/10/02 07:02:51;;;;;;;20.38;3.40;;;14.60;99.90;;;;;;5046027;28;20398;-73
2022/10/02 07:05:29;;;;;;;18.02;3.20;;;14.70;99.90;;;;;;5014344;28;20056;-74
2022/10/02 07:08:22;;;;;;;23.42;3.72;;;14.70;99.90;;;;;;5014026;28;20025;-74
2022/10/02 07:10:56;;;;;;;;;;;14.70;99.90;;;;;;5014993;28;20034;-73
2022/10/02 07:13:36;;;;;;;16.67;3.40;;;14.80;99.90;;;;;;5014459;28;20001;-74
2022/10/02 07:16:29;;;;;;;20.77;3.30;;;14.90;99.90;;;;;;5014482;28;20032;-74
2022/10/02 07:19:26;;;;;;;17.52;2.75;;;14.90;99.90;;;;;;5013946;28;20029;-74
2022/10/02 07:22:18;;;;;;;12.82;3.15;;;14.90;99.90;;;;;;5014194;28;20451;-73
2022/10/02 07:25:12;;;;;;;20.40;3.17;;;15.00;99.90;;;;;;5013923;28;20359;-74
2022/10/02 07:27:54;;;;;;;25.77;4.32;;;15.00;99.90;;;;;;5014136;28;20069;-74
2022/10/02 07:30:20;;;;;;;15.52;2.92;;;15.10;99.90;;;;;;5014161;28;20064;-74
2022/10/02 07:32:53;;;;;;;18.08;3.25;;;15.10;99.90;;;;;;5013881;28;20046;-74
2022/10/02 07:35:37;;;;;;;16.75;3.20;;;15.10;99.90;;;;;;5013594;28;20045;-74
2022/10/02 07:38:20;;;;;;;17.90;3.42;;;15.20;99.90;;;;;;5013947;28;20022;-73
2022/10/02 07:41:23;;;;;;;17.73;2.78;;;15.20;99.90;;;;;;5014002;28;20032;-74
2022/10/02 07:44:13;;;;;;;23.95;3.72;;;15.20;99.90;;;;;;5014140;28;20030;-73
2022/10/02 07:46:39;;;;;;;15.15;3.10;;;15.20;99.90;;;;;;5015301;28;20072;-72
2022/10/02 07:49:35;;;;;;;16.05;3.30;;;15.20;99.90;;;;;;5013872;28;20169;-73
2022/10/02 07:52:38;;;;;;;13.00;2.40;;;15.30;99.90;;;;;;5013914;28;20052;-73
2022/10/02 07:55:17;;;;;;;19.55;2.38;;;15.30;99.90;;;;;;5013596;28;20014;-73
2022/10/02 07:58:03;;;;;;;17.55;2.78;;;15.30;99.90;;;;;;5013909;28;20108;-73
2022/10/02 08:00:35;;;;;;;14.13;2.75;;;15.30;99.90;;;;;;5013729;28;20048;-73
2022/10/02 08:03:14;;;;;;;12.57;2.28;;;15.30;99.90;;;;;;5013537;28;20022;-73
2022/10/02 08:06:00;;;;;;;14.52;2.80;;;15.30;99.90;;;;;;5013521;28;20049;-73
2022/10/02 08:08:29;;;;;;;15.70;2.20;;;15.40;99.90;;;;;;5013501;28;20046;-73
2022/10/02 08:11:43;;;;;;;15.63;2.60;;;15.40;99.90;;;;;;5013110;28;20069;-73
2022/10/02 08:14:37;;;;;;;15.57;1.98;;;15.40;99.90;;;;;;5014698;28;20390;-73
2022/10/02 08:17:20;;;;;;;16.02;2.30;;;15.50;99.90;;;;;;5013850;28;20025;-73
2022/10/02 08:19:51;;;;;;;14.60;2.03;;;15.50;99.90;;;;;;5013138;28;20022;-73
2022/10/02 08:22:25;;;;;;;13.50;3.10;;;15.50;99.90;;;;;;5013307;28;20034;-74
2022/10/02 08:25:01;;;;;;;16.85;2.05;;;15.70;99.90;;;;;;5013270;28;20022;-73
2022/10/02 08:27:32;;;;;;;16.25;2.47;;;15.80;99.90;;;;;;5012811;28;20129;-73
2022/10/02 08:30:02;;;;;;;13.40;2.30;;;15.80;99.90;;;;;;5014136;28;20404;-73
2022/10/02 08:32:32;;;;;;;16.88;2.58;;;15.90;99.90;;;;;;5017207;28;20390;-73
2022/10/02 08:34:59;;;;;;;14.93;2.33;;;15.90;99.90;;;;;;5016958;28;20449;-73
2022/10/02 08:38:11;;;;;;;15.48;1.73;;;15.90;99.90;;;;;;5017350;28;20033;-73
2022/10/02 08:41:14;;;;;;;18.08;2.75;;;16.00;99.90;;;;;;5018362;28;20497;-72
2022/10/02 08:43:52;;;;;;;;;;;16.00;99.90;;;;;;5017217;28;20026;-73
2022/10/02 08:46:41;;;;;;;11.50;1.60;;;16.10;99.90;;;;;;5017008;28;19905;-74
2022/10/02 08:49:33;;;;;;;15.05;2.50;;;16.10;99.90;;;;;;5016987;28;20052;-74
2022/10/02 08:52:30;;;;;;;16.33;2.30;;;16.10;99.90;;;;;;5016642;28;20092;-74
2022/10/02 08:54:58;;;;;;;18.52;2.63;;;16.10;99.90;;;;;;5016798;28;20277;-74
2022/10/02 08:57:34;;;;;;;16.80;2.55;;;16.20;99.90;;;;;;5016439;28;20029;-74
2022/10/02 09:00:20;;;;;;;12.32;1.83;;;16.20;99.90;;;;;;5016630;28;20032;-73
2022/10/02 09:03:18;;;;;;;15.88;2.15;;;16.30;99.90;;;;;;5025255;28;20077;-74
2022/10/02 09:05:46;;;;;;;16.05;2.28;;;16.30;99.90;;;;;;5016561;28;20037;-74
2022/10/02 09:08:50;;;;;;;19.42;2.40;;;16.40;99.90;;;;;;5016397;28;20554;-74
2022/10/02 09:11:36;;;;;;;10.77;1.50;;;16.50;99.90;;;;;;5016521;28;20092;-73
2022/10/02 09:14:19;;;;;;;10.88;1.80;;;16.60;99.90;;;;;;5016378;28;20030;-74
2022/10/02 09:17:02;;;;;;;12.43;1.67;;;16.70;99.90;;;;;;5016251;28;20073;-73
2022/10/02 09:20:05;;;;;;;15.20;1.92;;;16.80;99.90;;;;;;5015929;28;20046;-73
2022/10/02 09:22:34;;;;;;;;;;;16.80;99.90;;;;;;5016547;28;20092;-74
2022/10/02 09:25:36;;;;;;;12.57;2.08;;;16.90;99.90;;;;;;5016318;28;19906;-74
2022/10/02 09:28:33;;;;;;;15.05;1.83;;;16.90;99.90;;;;;;5016154;28;20409;-74
2022/10/02 09:31:14;;;;;;;12.00;1.77;;;16.90;99.90;;;;;;5016097;28;20038;-74
2022/10/02 09:34:15;;;;;;;14.55;2.35;;;16.90;99.90;;;;;;5016112;28;20172;-74
2022/10/02 09:37:17;;;;;;;14.90;1.70;;;16.90;99.90;;;;;;5018235;28;20507;-73
2022/10/02 09:39:58;;;;;;;12.77;1.70;;;17.00;99.90;;;;;;5016269;28;20026;-74
2022/10/02 09:43:19;;;;;;;16.23;2.00;;;17.00;99.90;;;;;;5014722;28;20029;-74
2022/10/02 09:45:50;;;;;;;13.10;1.83;;;17.10;99.90;;;;;;5015895;28;20056;-74
2022/10/02 09:48:29;;;;;;;15.95;1.80;;;17.10;99.90;;;;;;5015876;28;20025;-74
2022/10/02 09:51:04;;;;;;;15.45;1.70;;;17.20;99.80;;;;;;5015847;28;20046;-73
2022/10/02 09:54:03;;;;;;;18.23;2.40;;;17.20;99.60;;;;;;5015756;28;20029;-74
2022/10/02 09:56:35;;;;;;;18.08;1.83;;;17.20;99.70;;;;;;5015432;28;20022;-74
2022/10/02 09:59:57;;;;;;;13.68;1.65;;;17.20;99.10;;;;;;5015502;28;20359;-74
2022/10/02 10:02:32;;;;;;;14.90;1.63;;;17.20;98.50;;;;;;5015843;28;20022;-74
2022/10/02 10:05:44;;;;;;;14.85;1.67;;;17.30;98.50;;;;;;5015114;28;20524;-73
2022/10/02 10:08:37;;;;;;;17.20;1.92;;;17.40;98.00;;;;;;5016006;28;20066;-73
2022/10/02 10:11:30;;;;;;;12.60;2.08;;;17.40;97.30;;;;;;5015249;28;20040;-74
2022/10/02 10:13:59;;;;;;;;;;;17.50;97.00;;;;;;5015634;28;20030;-74
2022/10/02 10:16:29;;;;;;;12.10;1.60;;;17.50;97.20;;;;;;5015006;28;19941;-74
2022/10/02 10:19:25;;;;;;;12.75;2.35;;;17.70;96.90;;;;;;5015073;28;20044;-74
2022/10/02 10:22:19;;;;;;;16.52;1.95;;;17.70;96.60;;;;;;5015046;28;20026;-73
2022/10/02 10:24:53;;;;;;;12.10;1.52;;;17.70;96.10;;;;;;5015279;28;20021;-73
2022/10/02 10:27:49;;;;;;;8.85;1.30;;;17.70;95.80;;;;;;5014870;28;20041;-73
2022/10/02 10:30:14;;;;;;;8.55;1.20;;;17.90;95.50;;;;;;5014581;28;20378;-73
2022/10/02 10:33:10;;;;;;;11.00;1.23;;;17.90;95.20;;;;;;5016919;28;20045;-73
2022/10/02 10:38:31;;;;;;;11.23;1.30;;;18.00;95.30;;;;;;5016446;28;20377;-74
2022/10/02 10:39:25;;;;;;;9.38;1.48;;;18.10;95.00;;;;;;5014761;28;20026;-73
2022/10/02 10:42:22;;;;;;;11.05;1.58;;;18.30;94.50;;;;;;5014609;28;20042;-74
2022/10/02 10:45:18;;;;;;;8.43;1.40;;;18.40;94.40;;;;;;5014807;28;20109;-73
2022/10/02 10:48:21;;;;;;;13.43;1.40;;;18.30;94.40;;;;;;5014411;28;20497;-74
2022/10/02 10:51:18;;;;;;;10.57;1.63;;;18.30;93.50;;;;;;5014306;28;20034;-74
2022/10/02 10:53:50;;;;;;;13.20;1.30;;;18.20;93.10;;;;;;5015301;28;20036;-75
2022/10/02 10:56:45;;;;;;;9.98;1.33;;;18.00;93.30;;;;;;5014308;28;20029;-74
2022/10/02 10:59:31;;;;;;;10.05;1.23;;;18.00;92.90;;;;;;5014425;28;20041;-74
2022/10/02 11:02:45;;;;;;;11.40;1.23;;;18.00;93.00;;;;;;5014464;28;20096;-74
2022/10/02 11:05:14;;;;;;;;;;;18.00;92.40;;;;;;5018096;28;20029;-73
2022/10/02 11:08:21;;;;;;;8.85;1.25;;;17.90;92.10;;;;;;5014042;28;20365;-74
2022/10/02 11:11:13;;;;;;;11.52;0.95;;;17.80;92.40;;;;;;5014441;28;20042;-74
2022/10/02 11:14:08;;;;;;;11.45;1.13;;;17.80;92.50;;;;;;5014230;28;20026;-74
2022/10/02 11:17:10;;;;;;;12.95;1.30;;;17.90;92.80;;;;;;5014258;28;20048;-74
2022/10/02 11:19:44;;;;;;;7.05;1.25;;;17.90;92.70;;;;;;5014400;28;20022;-74
2022/10/02 11:22:36;;;;;;;10.35;1.27;;;17.90;92.70;;;;;;5013770;28;20545;-74
2022/10/02 11:25:18;;;;;;;10.70;1.30;;;17.80;92.40;;;;;;5013914;28;20135;-74
2022/10/02 11:27:56;;;;;;;9.77;1.25;;;17.80;92.60;;;;;;5015193;28;20078;-73
2022/10/02 11:30:54;;;;;;;10.95;0.95;;;17.90;92.90;;;;;;5013874;28;20030;-74
2022/10/02 11:33:56;;;;;;;8.98;1.48;;;18.00;93.00;;;;;;5014111;28;20050;-74
2022/10/02 11:36:59;;;;;;;9.85;1.00;;;18.00;92.00;;;;;;5013707;28;20355;-74
2022/10/02 11:39:54;;;;;;;9.15;1.10;;;18.10;92.50;;;;;;5013696;28;20033;-74
2022/10/02 11:42:45;;;;;;;10.88;1.23;;;18.20;92.60;;;;;;5013724;28;20034;-74
2022/10/02 11:45:42;;;;;;;8.45;1.33;;;18.20;92.00;;;;;;5013422;28;20029;-73
2022/10/02 11:48:17;;;;;;;5.85;0.80;;;18.20;91.20;;;;;;5013596;28;20049;-73
2022/10/02 11:51:01;;;;;;;12.23;1.48;;;18.30;90.80;;;;;;5013680;28;20450;-74
2022/10/02 11:53:35;;;;;;;7.05;0.82;;;18.30;90.50;;;;;;5013567;28;20036;-74
2022/10/02 11:56:06;;;;;;;10.80;1.60;;;18.20;90.50;;;;;;5013701;28;20025;-75
2022/10/02 11:59:23;;;;;;;11.65;1.20;;;18.20;90.70;;;;;;5013626;28;20097;-74
2022/10/02 12:02:10;;;;;;;9.73;1.52;;;18.20;91.30;;;;;;5020781;28;20121;-74
2022/10/02 12:04:44;;;;;;;12.52;1.35;;;18.20;91.60;;;;;;5012847;28;20036;-73
2022/10/02 12:07:36;;;;;;;12.15;1.23;;;18.10;91.50;;;;;;5013346;28;20473;-74
2022/10/02 12:10:24;;;;;;;14.88;1.63;;;18.10;91.70;;;;;;5012842;28;20080;-75
2022/10/02 12:13:17;;;;;;;11.05;2.10;;;18.00;91.60;;;;;;5013274;28;20386;-75
2022/10/02 12:15:43;;;;;;;;;;;17.90;91.80;;;;;;5013766;28;20038;-74
2022/10/02 12:18:24;;;;;;;8.88;1.10;;;17.90;91.90;;;;;;5013398;28;19912;-74
2022/10/02 12:27:25;;;;;;;9.48;1.23;;;18.20;91.20;;;;;;5039903;28;20057;-74
2022/10/02 12:30:05;;;;;;;10.65;1.48;;;18.30;90.50;;;;;;5013387;28;20053;-75
2022/10/02 12:32:36;;;;;;;8.70;1.10;;;18.30;90.50;;;;;;5013172;28;20022;-74
2022/10/02 12:35:38;;;;;;;8.07;1.10;;;18.50;90.30;;;;;;5012859;28;20120;-74
2022/10/02 12:38:31;;;;;;;8.75;1.13;;;18.70;90.00;;;;;;5013336;28;20026;-75
2022/10/02 12:41:34;;;;;;;8.48;1.42;;;18.90;88.20;;;;;;5013246;28;20105;-75
2022/10/02 12:44:12;;;;;;;8.18;1.00;;;19.10;88.60;;;;;;5012900;28;20026;-75
2022/10/02 12:47:21;;;;;;;10.15;1.10;;;19.20;87.10;;;;;;5012994;28;20604;-75
2022/10/02 12:49:58;;;;;;;6.15;1.35;;;19.30;85.90;;;;;;5030203;28;20534;-74
2022/10/02 12:52:38;;;;;;;11.88;1.40;;;19.20;83.80;;;;;;5015363;28;20453;-74
2022/10/02 12:55:38;;;;;;;8.88;1.50;;;19.20;83.70;;;;;;5013135;28;20425;-74
2022/10/02 12:58:12;;;;;;;8.88;1.30;;;19.30;84.30;;;;;;5012707;28;20060;-74
2022/10/02 13:01:16;;;;;;;10.50;1.10;;;19.40;84.00;;;;;;5012832;28;20540;-75
2022/10/02 13:04:05;;;;;;;9.57;1.20;;;19.50;83.30;;;;;;5013048;28;20018;-75
2022/10/02 13:07:00;;;;;;;9.25;1.40;;;19.50;82.30;;;;;;5012768;28;20045;-75
2022/10/02 13:09:50;;;;;;;8.23;1.13;;;19.50;83.20;;;;;;5012404;28;20071;-75
2022/10/02 13:12:49;;;;;;;11.57;1.42;;;19.50;83.10;;;;;;5013041;28;20026;-75
2022/10/02 13:15:39;;;;;;;8.48;1.00;;;19.50;83.10;;;;;;5019592;28;20490;-75
2022/10/02 13:18:32;;;;;;;11.02;1.00;;;19.60;83.00;;;;;;5016649;28;20084;-74
2022/10/02 13:21:17;;;;;;;7.30;0.93;;;19.60;82.00;;;;;;5017218;28;20097;-74
2022/10/02 13:24:07;;;;;;;8.73;1.52;;;19.80;81.90;;;;;;5016225;28;20025;-74
2022/10/02 13:26:50;;;;;;;9.80;1.23;;;20.00;82.10;;;;;;5015832;28;20509;-75
2022/10/02 13:29:19;;;;;;;;;;;20.10;81.20;;;;;;5016600;28;20026;-74
2022/10/02 13:32:08;;;;;;;10.80;1.75;;;20.20;81.30;;;;;;5016261;28;20032;-74
2022/10/02 13:34:57;;;;;;;9.00;1.20;;;20.20;80.10;;;;;;5016084;28;20387;-74
2022/10/02 13:37:34;;;;;;;8.20;1.00;;;20.20;79.30;;;;;;5016145;28;20022;-74
2022/10/02 13:40:34;;;;;;;8.15;1.15;;;20.00;79.70;;;;;;5016168;28;20424;-74
2022/10/02 13:43:25;;;;;;;8.60;1.00;;;19.90;80.50;;;;;;5016093;28;20096;-74
2022/10/02 13:46:09;;;;;;;8.30;1.20;;;19.70;80.00;;;;;;5015687;28;20030;-75
2022/10/02 13:49:00;;;;;;;9.52;1.23;;;19.50;80.90;;;;;;5015562;28;20496;-74
2022/10/02 13:51:45;;;;;;;6.22;0.93;;;19.40;81.50;;;;;;5015499;28;20042;-74
2022/10/02 13:54:19;;;;;;;8.00;1.40;;;19.30;81.80;;;;;;5015706;28;20113;-75
2022/10/02 13:57:17;;;;;;;8.57;1.00;;;19.30;82.10;;;;;;5015936;28;20022;-75
2022/10/02 13:59:57;;;;;;;10.13;1.20;;;19.40;81.10;;;;;;5015800;28;20032;-75
2022/10/02 14:02:41;;;;;;;6.85;0.93;;;19.50;82.50;;;;;;5015586;28;20018;-75
2022/10/02 14:05:07;;;;;;;8.32;0.93;;;19.70;82.30;;;;;;5015477;28;20104;-75
2022/10/02 14:07:53;;;;;;;6.88;0.95;;;19.90;81.50;;;;;;5015590;28;20104;-74
2022/10/02 14:10:38;;;;;;;10.90;1.33;;;20.10;79.70;;;;;;5015554;28;20038;-75